Time;durP1;ratioP1;P1;durP2;ratioP2;P2;SDS_P1;SDS_P2;PMS_P1;PMS_P2;Temp;Humidity;BMP_temperature;BMP_pressure;BME280_temperature;BME280_humidity;BME280_pressure;Samples;Min_cycle;Max_cycle;Signal;HPM_P1;HPM_P2
2021/05/05 00:02:18;;;;;;;3.17;0.90;;;19.30;99.90;;;;;;5035782;28;20228;-91
2021/05/05 00:04:49;;;;;;;1.30;0.50;;;19.50;99.90;;;;;;5040690;28;20224;-90
2021/05/05 00:07:21;;;;;;;2.80;0.60;;;19.70;99.90;;;;;;5037347;28;20676;-91
2021/05/05 00:09:52;;;;;;;1.37;0.70;;;19.60;99.90;;;;;;5037806;28;20212;-93
2021/05/05 00:12:22;;;;;;;1.93;0.50;;;19.50;99.90;;;;;;5037738;28;20598;-91
2021/05/05 00:14:52;;;;;;;1.30;0.67;;;19.40;99.90;;;;;;5034948;28;20648;-90
2021/05/05 00:17:23;;;;;;;1.97;0.60;;;19.30;99.90;;;;;;5036663;28;20248;-90
2021/05/05 00:19:54;;;;;;;1.70;0.60;;;19.00;99.90;;;;;;5035157;28;20750;-90
2021/05/05 00:22:26;;;;;;;1.07;0.70;;;19.20;99.90;;;;;;5036262;28;20208;-89
2021/05/05 00:24:55;;;;;;;2.13;0.87;;;19.20;99.90;;;;;;5033648;28;20275;-90
2021/05/05 00:27:26;;;;;;;1.83;0.70;;;19.20;99.90;;;;;;5033816;28;20658;-90
2021/05/05 00:29:57;;;;;;;1.37;0.80;;;19.30;99.90;;;;;;5034269;28;20704;-89
2021/05/05 00:32:27;;;;;;;2.87;0.73;;;19.40;99.90;;;;;;5037091;28;20205;-89
2021/05/05 00:34:58;;;;;;;2.63;0.73;;;19.30;99.90;;;;;;5037520;28;20233;-94
2021/05/05 00:37:31;;;;;;;1.37;0.73;;;19.20;99.90;;;;;;5021086;28;20201;-89
2021/05/05 00:40:02;;;;;;;2.53;0.67;;;19.30;99.90;;;;;;5038802;28;20296;-89
2021/05/05 00:42:32;;;;;;;1.57;0.70;;;19.20;99.90;;;;;;5038867;28;20209;-89
2021/05/05 00:45:04;;;;;;;2.23;0.90;;;19.40;99.90;;;;;;5036687;28;20303;-89
2021/05/05 00:47:35;;;;;;;2.40;0.90;;;19.00;99.90;;;;;;5037673;28;20201;-87
2021/05/05 00:50:07;;;;;;;2.87;0.90;;;19.20;99.90;;;;;;5038162;28;20235;-89
2021/05/05 00:52:40;;;;;;;2.97;1.07;;;19.20;99.90;;;;;;5037962;28;20219;-89
2021/05/05 00:55:12;;;;;;;3.07;0.70;;;19.10;99.90;;;;;;5036895;28;20236;-89
2021/05/05 00:57:45;;;;;;;1.90;0.77;;;19.20;99.90;;;;;;5038000;28;20201;-88
2021/05/05 01:00:17;;;;;;;0.97;0.50;;;19.30;99.90;;;;;;5020661;28;20212;-89
2021/05/05 01:02:47;;;;;;;1.77;0.60;;;19.70;99.90;;;;;;5038166;28;20296;-89
2021/05/05 01:05:18;;;;;;;2.80;0.83;;;19.70;99.90;;;;;;5037775;28;20215;-89
2021/05/05 01:07:50;;;;;;;1.73;0.70;;;20.20;99.90;;;;;;5038407;28;20279;-89
2021/05/05 01:10:21;;;;;;;1.17;0.57;;;20.20;99.90;;;;;;5037856;28;20233;-89
2021/05/05 01:12:52;;;;;;;1.57;0.60;;;19.80;99.90;;;;;;5037847;28;20205;-89
2021/05/05 01:15:23;;;;;;;1.73;0.57;;;20.40;99.90;;;;;;5036449;28;20279;-90
2021/05/05 01:17:52;;;;;;;0.63;0.53;;;20.80;99.90;;;;;;5038359;28;20205;-89
2021/05/05 01:20:23;;;;;;;1.03;0.60;;;21.20;99.90;;;;;;5038952;28;20217;-89
2021/05/05 01:22:56;;;;;;;1.67;0.70;;;21.40;99.90;;;;;;5038131;28;20227;-89
2021/05/05 01:25:27;;;;;;;2.27;0.63;;;20.70;99.90;;;;;;5037880;28;20320;-89
2021/05/05 01:27:58;;;;;;;2.87;0.80;;;21.00;99.90;;;;;;5037944;28;20213;-89
2021/05/05 01:30:28;;;;;;;1.73;0.60;;;21.00;99.90;;;;;;5039932;28;20213;-90
2021/05/05 01:32:59;;;;;;;1.30;0.63;;;21.20;99.90;;;;;;5054741;28;20247;-89
2021/05/05 01:35:30;;;;;;;2.20;0.70;;;21.60;99.90;;;;;;5054008;28;20252;-90
2021/05/05 01:38:02;;;;;;;2.00;0.70;;;21.50;99.90;;;;;;5048961;28;20205;-89
2021/05/05 01:40:34;;;;;;;1.50;0.73;;;21.50;99.90;;;;;;5039279;28;20205;-89
2021/05/05 01:43:07;;;;;;;2.37;0.70;;;21.80;99.90;;;;;;5038490;28;20235;-89
2021/05/05 01:45:39;;;;;;;1.20;0.70;;;21.60;99.90;;;;;;5036851;28;20277;-90
2021/05/05 01:48:12;;;;;;;4.50;0.90;;;20.90;99.90;;;;;;5021659;28;20231;-89
2021/05/05 01:50:43;;;;;;;2.53;1.00;;;20.60;99.90;;;;;;5038643;28;20205;-90
2021/05/05 01:53:17;;;;;;;1.87;1.00;;;20.70;99.90;;;;;;5037061;28;20666;-90
2021/05/05 01:55:48;;;;;;;4.00;1.00;;;20.60;99.90;;;;;;5019240;28;20237;-90
2021/05/05 01:58:18;;;;;;;2.33;0.83;;;20.20;99.90;;;;;;5021719;28;20205;-90
2021/05/05 02:00:49;;;;;;;2.53;1.00;;;19.40;99.90;;;;;;5040267;28;20235;-90
2021/05/05 02:03:19;;;;;;;2.40;1.00;;;18.80;99.90;;;;;;5040663;28;20205;-91
2021/05/05 02:05:50;;;;;;;3.73;1.20;;;18.20;99.90;;;;;;5020450;28;20674;-91
2021/05/05 02:08:23;;;;;;;3.23;1.17;;;17.70;99.90;;;;;;5037354;28;20201;-91
2021/05/05 02:10:53;;;;;;;5.20;1.13;;;17.40;99.90;;;;;;5036461;28;20235;-92
2021/05/05 02:13:23;;;;;;;2.17;1.30;;;17.00;99.90;;;;;;5036838;28;20231;-92
2021/05/05 02:15:54;;;;;;;4.20;1.20;;;16.70;99.90;;;;;;5035921;28;20300;-92
2021/05/05 02:18:25;;;;;;;7.07;1.40;;;16.50;99.90;;;;;;5037428;28;20342;-92
2021/05/05 02:20:56;;;;;;;2.80;0.93;;;16.30;99.90;;;;;;5040116;28;20243;-92
2021/05/05 02:23:28;;;;;;;3.57;1.13;;;16.30;99.90;;;;;;5037686;28;20290;-92
2021/05/05 02:25:59;;;;;;;3.00;1.00;;;16.20;99.90;;;;;;5036258;28;20237;-91
2021/05/05 02:28:31;;;;;;;3.03;1.10;;;16.10;99.90;;;;;;5037393;28;20279;-92
2021/05/05 02:31:02;;;;;;;2.77;1.20;;;15.90;99.90;;;;;;5038953;28;20213;-91
2021/05/05 02:33:33;;;;;;;3.20;0.90;;;15.80;99.90;;;;;;5036895;28;20204;-91
2021/05/05 02:36:04;;;;;;;4.40;1.03;;;15.70;99.90;;;;;;5020187;28;20236;-92
2021/05/05 02:38:36;;;;;;;4.97;1.30;;;15.60;99.90;;;;;;5038534;28;20229;-92
2021/05/05 02:41:07;;;;;;;3.93;1.27;;;15.50;99.90;;;;;;5050949;28;20208;-91
2021/05/05 02:43:37;;;;;;;2.67;1.23;;;15.40;99.90;;;;;;5044113;28;20205;-91
2021/05/05 02:46:08;;;;;;;2.33;1.03;;;15.20;99.90;;;;;;5035899;28;20653;-91
2021/05/05 02:48:38;;;;;;;5.20;1.37;;;15.10;99.90;;;;;;5019466;28;20212;-91
2021/05/05 02:51:08;;;;;;;2.93;1.23;;;15.00;99.90;;;;;;5036510;28;20239;-91
2021/05/05 02:53:40;;;;;;;4.63;1.50;;;14.90;99.90;;;;;;5036058;28;20241;-92
2021/05/05 02:56:11;;;;;;;4.20;1.53;;;14.80;99.90;;;;;;5035565;28;20204;-91
2021/05/05 02:58:42;;;;;;;3.17;1.00;;;14.70;99.90;;;;;;5036486;28;20209;-91
2021/05/05 03:01:12;;;;;;;5.47;1.20;;;14.70;99.90;;;;;;5036344;28;20209;-92
2021/05/05 03:06:35;;;;;;;4.30;1.27;;;14.50;99.90;;;;;;5035759;28;20205;-92
2021/05/05 03:09:07;;;;;;;3.40;1.10;;;14.40;99.90;;;;;;5035930;28;20235;-92
2021/05/05 03:11:38;;;;;;;6.93;1.70;;;14.30;99.90;;;;;;5035808;28;20235;-92
2021/05/05 03:14:08;;;;;;;3.73;1.60;;;14.20;99.90;;;;;;5035790;28;20283;-92
2021/05/05 03:16:39;;;;;;;5.17;1.93;;;14.10;99.90;;;;;;5035154;28;20291;-92
2021/05/05 03:19:10;;;;;;;2.97;1.50;;;14.00;99.90;;;;;;5038315;28;20296;-92
2021/05/05 03:21:41;;;;;;;4.67;1.80;;;13.80;99.90;;;;;;5038013;28;20296;-91
2021/05/05 03:24:14;;;;;;;3.80;1.70;;;13.70;99.90;;;;;;5037382;28;20224;-91
2021/05/05 03:26:46;;;;;;;4.73;1.90;;;13.60;99.90;;;;;;5019462;28;20209;-92
2021/05/05 03:29:16;;;;;;;7.13;2.03;;;13.60;99.90;;;;;;5036154;28;20224;-91
2021/05/05 03:31:47;;;;;;;7.87;1.77;;;13.50;99.90;;;;;;5035728;28;20213;-92
2021/05/05 03:34:18;;;;;;;5.07;1.47;;;13.40;99.90;;;;;;5035632;28;20229;-92
2021/05/05 03:36:49;;;;;;;4.80;1.57;;;13.20;99.90;;;;;;5034693;28;20228;-91
2021/05/05 03:39:21;;;;;;;5.97;1.33;;;13.10;99.90;;;;;;5036181;28;20303;-92
2021/05/05 03:41:52;;;;;;;3.63;1.60;;;13.00;99.90;;;;;;5033935;28;20221;-91
2021/05/05 03:44:26;;;;;;;4.57;1.93;;;12.90;99.90;;;;;;5034393;28;20232;-91
2021/05/05 03:46:56;;;;;;;6.27;1.90;;;12.80;99.90;;;;;;5037211;28;20307;-90
2021/05/05 03:49:27;;;;;;;5.50;1.80;;;12.60;99.90;;;;;;5037680;28;20272;-91
2021/05/05 03:51:58;;;;;;;6.83;2.20;;;12.50;99.90;;;;;;5036010;28;20259;-91
2021/05/05 03:54:31;;;;;;;6.53;2.20;;;12.40;99.90;;;;;;5039993;28;20238;-91
2021/05/05 03:57:01;;;;;;;8.47;1.97;;;12.40;99.90;;;;;;5051732;28;20263;-91
2021/05/05 03:59:32;;;;;;;6.43;1.73;;;12.30;99.90;;;;;;5052766;28;20212;-91
2021/05/05 04:02:03;;;;;;;4.57;1.90;;;12.20;99.90;;;;;;5044893;28;20201;-90
2021/05/05 04:04:34;;;;;;;7.30;2.27;;;12.00;99.90;;;;;;5033625;28;20228;-91
2021/05/05 04:07:05;;;;;;;7.13;1.90;;;12.00;99.90;;;;;;5019481;28;20240;-91
2021/05/05 04:09:37;;;;;;;4.07;1.57;;;11.90;99.90;;;;;;5022307;28;20630;-92
2021/05/05 04:12:09;;;;;;;5.50;1.47;;;11.90;99.90;;;;;;5038210;28;20250;-91
2021/05/05 04:14:41;;;;;;;9.27;1.70;;;11.90;99.90;;;;;;5036823;28;20233;-91
2021/05/05 04:17:29;;;;;;;5.70;1.77;;;11.80;99.90;;;;;;5038331;28;20254;-92
2021/05/05 04:20:19;;;;;;;4.67;1.57;;;11.80;99.90;;;;;;5038383;28;20284;-91
2021/05/05 04:23:07;;;;;;;5.37;1.50;;;11.70;99.90;;;;;;5038370;28;20263;-91
2021/05/05 04:26:12;;;;;;;4.77;1.40;;;11.60;99.90;;;;;;5003903;28;20720;-92
2021/05/05 04:28:43;;;;;;;3.60;1.50;;;11.60;99.90;;;;;;5016158;28;20648;-92
2021/05/05 04:31:14;;;;;;;2.63;1.10;;;11.50;99.90;;;;;;5016538;28;20307;-91
2021/05/05 04:33:45;;;;;;;4.57;1.40;;;11.50;99.90;;;;;;5015435;28;20376;-91
2021/05/05 04:36:16;;;;;;;6.70;2.00;;;11.50;99.90;;;;;;5016323;28;20289;-91
2021/05/05 04:38:47;;;;;;;7.17;1.50;;;11.40;99.90;;;;;;5016383;28;20217;-91
2021/05/05 04:41:19;;;;;;;4.10;1.53;;;11.40;99.90;;;;;;5016121;28;20276;-91
2021/05/05 04:43:49;;;;;;;4.20;1.43;;;11.40;99.90;;;;;;5021439;28;20208;-90
2021/05/05 04:46:19;;;;;;;3.07;1.47;;;11.40;99.90;;;;;;5037175;28;20303;-91
2021/05/05 04:48:49;;;;;;;3.87;1.30;;;11.50;99.90;;;;;;5036406;28;20661;-90
2021/05/05 04:51:20;;;;;;;5.23;1.73;;;11.50;99.90;;;;;;5037554;28;20687;-90
2021/05/05 04:53:51;;;;;;;3.57;1.30;;;11.40;99.90;;;;;;5036077;28;20244;-91
2021/05/05 04:56:23;;;;;;;5.37;1.43;;;11.30;99.90;;;;;;5019850;28;20615;-91
2021/05/05 04:59:02;;;;;;;3.00;1.40;;;11.30;99.90;;;;;;5037633;28;20236;-91
2021/05/05 05:01:33;;;;;;;3.43;1.60;;;11.10;99.90;;;;;;5022126;28;20209;-91
2021/05/05 05:04:04;;;;;;;5.33;1.50;;;11.10;99.90;;;;;;5036927;28;20292;-91
2021/05/05 05:06:34;;;;;;;6.67;1.37;;;11.10;99.90;;;;;;5037489;28;20205;-92
2021/05/05 05:09:06;;;;;;;4.57;1.20;;;11.00;99.90;;;;;;5037612;28;20217;-91
2021/05/05 05:11:38;;;;;;;6.97;1.47;;;11.00;99.90;;;;;;5020427;28;20205;-92
2021/05/05 05:14:09;;;;;;;4.63;1.40;;;11.00;99.90;;;;;;5036463;28;20204;-91
2021/05/05 05:16:39;;;;;;;5.10;1.63;;;10.90;99.90;;;;;;5037242;28;20267;-91
2021/05/05 05:19:10;;;;;;;3.30;1.20;;;10.90;99.90;;;;;;5021503;28;20582;-91
2021/05/05 05:21:41;;;;;;;5.63;1.80;;;10.90;99.90;;;;;;5036488;28;20727;-92
2021/05/05 05:24:12;;;;;;;6.43;1.37;;;10.80;99.90;;;;;;5036137;28;20209;-91
2021/05/05 05:26:45;;;;;;;6.77;1.93;;;10.80;99.90;;;;;;5038452;28;20213;-92
2021/05/05 05:29:19;;;;;;;6.70;1.60;;;10.80;99.90;;;;;;5037137;28;20212;-91
2021/05/05 05:31:49;;;;;;;6.97;1.47;;;10.70;99.90;;;;;;5036979;28;20236;-91
2021/05/05 05:34:20;;;;;;;3.70;1.50;;;10.70;99.90;;;;;;5035582;28;20366;-92
2021/05/05 05:36:51;;;;;;;5.73;1.50;;;10.60;99.90;;;;;;5037017;28;20235;-91
2021/05/05 05:39:21;;;;;;;4.73;1.70;;;10.60;99.90;;;;;;5037073;28;20739;-91
2021/05/05 05:41:57;;;;;;;4.27;1.50;;;10.60;99.90;;;;;;5038378;28;20200;-91
2021/05/05 05:44:27;;;;;;;6.77;1.87;;;10.60;99.90;;;;;;5036111;28;20217;-90
2021/05/05 05:46:58;;;;;;;3.83;1.47;;;10.50;99.90;;;;;;5036572;28;20212;-90
2021/05/05 05:49:28;;;;;;;4.73;1.40;;;10.40;99.90;;;;;;5036447;28;20232;-91
2021/05/05 05:51:59;;;;;;;2.37;1.00;;;10.30;99.90;;;;;;5036788;28;20196;-91
2021/05/05 05:54:30;;;;;;;6.67;1.50;;;10.30;99.90;;;;;;5018600;28;20208;-91
2021/05/05 05:57:02;;;;;;;4.73;1.43;;;10.30;99.90;;;;;;5036440;28;20208;-90
2021/05/05 05:59:33;;;;;;;6.13;1.50;;;10.20;99.90;;;;;;5018883;28;20241;-91
2021/05/05 06:02:04;;;;;;;4.20;1.27;;;10.20;99.90;;;;;;5035978;28;20204;-91
2021/05/05 06:04:35;;;;;;;7.93;2.10;;;10.10;99.90;;;;;;5036144;28;20607;-90
2021/05/05 06:07:06;;;;;;;5.00;1.80;;;10.00;99.90;;;;;;5036544;28;20699;-92
2021/05/05 06:09:36;;;;;;;6.57;1.90;;;9.90;99.90;;;;;;5036279;28;20274;-92
2021/05/05 06:12:09;;;;;;;5.47;1.60;;;9.90;99.90;;;;;;5036275;28;20259;-91
2021/05/05 06:14:40;;;;;;;5.60;1.60;;;9.80;99.90;;;;;;5035850;28;20273;-91
2021/05/05 06:17:11;;;;;;;4.17;1.80;;;9.80;99.90;;;;;;5048668;28;20197;-91
2021/05/05 06:19:42;;;;;;;9.13;1.57;;;9.70;99.90;;;;;;5055771;28;20213;-92
2021/05/05 06:22:13;;;;;;;6.70;1.43;;;9.70;99.90;;;;;;5038891;28;20235;-91
2021/05/05 06:24:45;;;;;;;7.87;1.80;;;9.60;99.90;;;;;;5022033;28;20307;-91
2021/05/05 06:27:18;;;;;;;4.73;1.70;;;9.50;99.90;;;;;;5037920;28;20243;-91
2021/05/05 06:29:49;;;;;;;6.90;1.53;;;9.50;99.90;;;;;;5035576;28;20208;-92
2021/05/05 06:32:20;;;;;;;7.77;1.43;;;9.60;99.90;;;;;;5037348;28;20274;-90
2021/05/05 06:34:51;;;;;;;7.93;1.43;;;9.60;99.90;;;;;;5035563;28;20229;-91
2021/05/05 06:37:23;;;;;;;5.63;1.40;;;9.50;99.90;;;;;;5043146;28;20208;-91
2021/05/05 06:39:53;;;;;;;5.10;1.50;;;9.50;99.90;;;;;;5055426;28;20739;-91
2021/05/05 06:42:25;;;;;;;4.63;1.73;;;9.50;99.90;;;;;;5055393;28;20230;-91
2021/05/05 06:44:57;;;;;;;5.93;1.77;;;9.50;99.90;;;;;;5055005;28;20294;-90
2021/05/05 06:47:28;;;;;;;6.03;1.50;;;9.40;99.90;;;;;;5055282;28;20628;-91
2021/05/05 06:49:59;;;;;;;5.17;1.77;;;9.40;99.90;;;;;;5035616;28;20657;-91
2021/05/05 06:52:30;;;;;;;7.73;2.07;;;9.40;99.90;;;;;;5034784;28;20208;-91
2021/05/05 06:55:00;;;;;;;8.23;1.60;;;9.40;99.90;;;;;;5001444;28;20229;-90
2021/05/05 06:57:32;;;;;;;4.67;1.50;;;9.40;99.90;;;;;;5035499;28;20625;-90
2021/05/05 07:00:02;;;;;;;4.77;1.30;;;9.40;99.90;;;;;;5034714;28;20611;-91
2021/05/05 07:02:33;;;;;;;8.20;1.60;;;9.30;99.90;;;;;;5035533;28;20263;-90
2021/05/05 07:05:04;;;;;;;5.97;1.57;;;9.30;99.90;;;;;;5035144;28;20209;-90
2021/05/05 07:07:35;;;;;;;7.07;1.33;;;9.20;99.90;;;;;;5035258;28;20247;-91
2021/05/05 07:10:08;;;;;;;6.50;1.80;;;9.10;99.90;;;;;;5035257;28;20226;-92
2021/05/05 07:12:40;;;;;;;4.63;1.67;;;9.00;99.90;;;;;;5037280;28;20642;-91
2021/05/05 07:15:11;;;;;;;6.67;1.57;;;9.00;99.90;;;;;;5019477;28;20716;-91
2021/05/05 07:17:42;;;;;;;2.87;1.47;;;9.00;99.90;;;;;;5036604;28;20271;-91
2021/05/05 07:20:14;;;;;;;3.60;1.30;;;9.00;99.90;;;;;;5034861;28;20243;-91
2021/05/05 07:22:45;;;;;;;5.43;1.67;;;9.00;99.90;;;;;;5034618;28;20326;-91
2021/05/05 07:25:15;;;;;;;6.83;1.73;;;9.00;99.90;;;;;;5035951;28;20247;-91
2021/05/05 07:27:47;;;;;;;3.83;1.50;;;8.90;99.90;;;;;;5034607;28;20240;-91
2021/05/05 07:30:21;;;;;;;6.77;1.67;;;8.80;99.90;;;;;;5034980;28;20248;-91
2021/05/05 07:32:51;;;;;;;5.87;1.70;;;8.80;99.90;;;;;;5035364;28;20204;-91
2021/05/05 07:35:23;;;;;;;7.57;1.73;;;8.80;99.90;;;;;;5035139;28;20263;-91
2021/05/05 07:46:33;;;;;;;11.83;3.60;;;8.70;99.90;;;;;;5019920;28;20243;-90
2021/05/05 07:49:06;;;;;;;6.30;2.07;;;8.70;99.90;;;;;;5034190;28;20267;-91
2021/05/05 07:51:34;;;;;;;8.20;3.10;;;8.70;99.90;;;;;;5034211;28;20295;-90
2021/05/05 07:54:04;;;;;;;7.10;1.90;;;8.70;99.90;;;;;;5016389;28;20212;-90
2021/05/05 07:56:33;;;;;;;4.57;1.57;;;8.60;99.90;;;;;;5017646;28;20285;-90
2021/05/05 07:59:03;;;;;;;6.40;1.57;;;8.50;99.90;;;;;;5034825;28;20205;-91
2021/05/05 08:01:33;;;;;;;5.87;1.70;;;8.50;99.90;;;;;;5033821;28;20731;-90
2021/05/05 08:04:05;;;;;;;8.23;1.70;;;8.40;99.90;;;;;;5033992;28;20212;-90
2021/05/05 08:06:35;;;;;;;5.47;1.70;;;8.40;99.90;;;;;;5034724;28;20200;-90
2021/05/05 08:09:07;;;;;;;5.47;1.70;;;8.40;99.90;;;;;;5034210;28;20207;-90
2021/05/05 08:11:38;;;;;;;4.73;1.43;;;8.40;99.90;;;;;;5034078;28;20580;-91
2021/05/05 08:14:10;;;;;;;11.20;2.13;;;8.40;99.90;;;;;;5034166;28;20209;-91
2021/05/05 08:16:40;;;;;;;8.20;1.60;;;8.40;99.90;;;;;;5033756;28;20225;-91
2021/05/05 08:19:11;;;;;;;4.17;1.40;;;8.40;99.90;;;;;;5034972;28;20295;-91
2021/05/05 08:21:42;;;;;;;6.40;1.97;;;8.30;99.90;;;;;;5034869;28;20211;-91
2021/05/05 08:24:13;;;;;;;7.77;1.77;;;8.20;99.90;;;;;;5033303;28;20209;-91
2021/05/05 08:26:45;;;;;;;5.67;1.70;;;8.20;99.90;;;;;;5034164;28;20212;-91
2021/05/05 08:29:17;;;;;;;5.73;1.60;;;8.20;99.90;;;;;;5035166;28;20211;-91
2021/05/05 08:31:47;;;;;;;6.57;1.87;;;8.10;99.90;;;;;;5034720;28;20259;-91
2021/05/05 08:34:18;;;;;;;6.90;2.00;;;8.10;99.90;;;;;;5035232;28;20201;-91
2021/05/05 08:36:49;;;;;;;8.37;1.60;;;8.20;99.90;;;;;;5040110;28;20235;-91
2021/05/05 08:39:20;;;;;;;6.87;2.13;;;8.20;99.90;;;;;;5051278;28;20210;-91
2021/05/05 08:41:52;;;;;;;5.80;1.30;;;8.20;99.90;;;;;;5050250;28;20235;-90
2021/05/05 08:44:25;;;;;;;6.20;1.50;;;8.20;99.90;;;;;;5044918;28;20196;-91
2021/05/05 08:46:56;;;;;;;6.97;1.60;;;8.20;99.90;;;;;;5042975;28;20209;-90
2021/05/05 08:49:27;;;;;;;5.73;1.87;;;8.20;99.90;;;;;;5040862;28;20214;-89
2021/05/05 08:51:58;;;;;;;8.33;1.90;;;8.10;99.90;;;;;;5041534;28;20227;-89
2021/05/05 08:54:29;;;;;;;7.53;2.03;;;8.10;99.90;;;;;;5040475;28;20733;-89
2021/05/05 08:57:00;;;;;;;6.50;2.10;;;8.10;99.90;;;;;;5045621;28;20228;-88
2021/05/05 08:59:33;;;;;;;7.57;1.67;;;8.10;99.90;;;;;;5045342;28;20278;-89
2021/05/05 09:02:04;;;;;;;9.97;1.87;;;8.00;99.90;;;;;;5042630;28;20699;-89
2021/05/05 09:04:36;;;;;;;5.20;1.70;;;8.00;99.90;;;;;;5021295;28;20211;-89
2021/05/05 09:07:06;;;;;;;5.47;1.70;;;8.00;99.90;;;;;;5020510;28;20308;-89
2021/05/05 09:09:41;;;;;;;7.73;1.87;;;8.00;99.90;;;;;;5037111;28;20264;-90
2021/05/05 09:12:17;;;;;;;7.53;1.70;;;7.90;99.90;;;;;;5038564;28;20204;-90
2021/05/05 09:14:55;;;;;;;9.83;2.13;;;7.90;99.90;;;;;;5036164;28;20338;-90
2021/05/05 09:17:28;;;;;;;7.47;2.10;;;7.90;99.90;;;;;;5036662;28;20208;-90
2021/05/05 09:20:20;;;;;;;6.67;1.70;;;7.80;99.90;;;;;;5037356;28;20631;-90
2021/05/05 09:22:54;;;;;;;6.63;1.87;;;7.80;99.90;;;;;;5037041;28;20257;-89
2021/05/05 09:25:26;;;;;;;5.27;1.50;;;7.80;99.90;;;;;;5036639;28;20254;-90
2021/05/05 09:28:12;;;;;;;7.97;1.90;;;7.70;99.90;;;;;;5036733;28;20663;-90
2021/05/05 09:30:47;;;;;;;7.53;2.10;;;7.70;99.90;;;;;;5037178;28;20298;-90
2021/05/05 09:33:24;;;;;;;6.60;2.03;;;7.70;99.90;;;;;;5036467;28;20274;-90
2021/05/05 09:35:56;;;;;;;8.30;1.80;;;7.60;99.90;;;;;;5035427;28;20251;-90
2021/05/05 09:38:42;;;;;;;6.53;2.10;;;7.60;99.90;;;;;;5036689;28;20676;-90
2021/05/05 09:41:18;;;;;;;8.67;2.00;;;7.60;99.90;;;;;;5036423;28;20712;-89
2021/05/05 09:43:59;;;;;;;9.57;2.20;;;7.50;99.90;;;;;;5035254;28;20669;-89
2021/05/05 09:46:45;;;;;;;9.13;2.20;;;7.50;99.90;;;;;;5036595;28;20657;-89
2021/05/05 09:49:28;;;;;;;8.70;1.93;;;7.50;99.90;;;;;;5019509;28;20213;-89
2021/05/05 09:52:01;;;;;;;6.93;2.20;;;7.40;99.90;;;;;;5036431;28;20205;-90
2021/05/05 09:54:35;;;;;;;12.17;2.10;;;7.40;99.90;;;;;;5018484;28;20221;-89
2021/05/05 09:57:21;;;;;;;6.17;1.80;;;7.40;99.90;;;;;;5035875;28;20247;-89
2021/05/05 10:00:05;;;;;;;9.47;3.17;;;7.40;99.90;;;;;;5036133;28;20258;-89
2021/05/05 10:02:46;;;;;;;7.80;2.23;;;7.30;99.90;;;;;;5036064;28;20214;-89
2021/05/05 10:05:17;;;;;;;8.77;1.97;;;7.30;99.90;;;;;;5036061;28;20213;-90
2021/05/05 10:07:58;;;;;;;8.10;2.03;;;7.30;99.90;;;;;;5035893;28;20212;-90
2021/05/05 10:10:30;;;;;;;7.50;2.10;;;7.20;99.90;;;;;;5035541;28;20209;-90
2021/05/05 10:13:02;;;;;;;9.07;1.90;;;7.20;99.90;;;;;;5036993;28;20658;-90
2021/05/05 10:15:34;;;;;;;8.90;2.10;;;7.20;99.90;;;;;;5017969;28;20233;-90
2021/05/05 10:18:11;;;;;;;7.47;1.90;;;7.20;99.90;;;;;;5036466;28;20634;-90
2021/05/05 10:20:46;;;;;;;6.57;1.83;;;7.10;99.90;;;;;;5037351;28;20288;-90
2021/05/05 10:23:19;;;;;;;7.83;1.77;;;7.10;99.90;;;;;;5035865;28;20212;-90
2021/05/05 10:25:51;;;;;;;8.87;2.27;;;7.10;99.90;;;;;;5035192;28;20213;-90
2021/05/05 10:28:24;;;;;;;9.77;1.83;;;7.10;99.90;;;;;;5035615;28;20210;-90
2021/05/05 10:30:59;;;;;;;9.83;2.40;;;7.10;99.90;;;;;;5015892;28;20214;-90
2021/05/05 10:33:37;;;;;;;8.03;1.73;;;7.10;99.90;;;;;;5016068;28;20293;-90
2021/05/05 10:36:37;;;;;;;6.73;1.93;;;7.00;99.90;;;;;;5017469;28;20233;-89
2021/05/05 10:39:32;;;;;;;6.53;1.60;;;7.00;99.90;;;;;;5015894;28;20217;-90
2021/05/05 10:42:11;;;;;;;7.57;2.10;;;7.00;99.90;;;;;;4998174;28;20211;-89
2021/05/05 10:44:45;;;;;;;6.87;2.10;;;7.00;99.90;;;;;;5014278;28;20232;-89
2021/05/05 10:47:22;;;;;;;5.30;1.70;;;6.90;99.90;;;;;;5015421;28;20689;-89
2021/05/05 10:50:19;;;;;;;6.13;1.77;;;6.90;99.90;;;;;;5033419;28;20215;-89
2021/05/05 10:53:04;;;;;;;3.87;1.63;;;6.90;99.90;;;;;;5036353;28;20202;-89
2021/05/05 10:55:40;;;;;;;7.20;2.20;;;6.90;99.90;;;;;;5046366;28;20248;-89
2021/05/05 10:58:12;;;;;;;7.77;2.00;;;6.80;99.90;;;;;;5056248;28;20189;-90
2021/05/05 11:01:08;;;;;;;6.33;2.40;;;6.90;99.90;;;;;;5039100;28;20192;-89
2021/05/05 11:03:59;;;;;;;7.20;2.27;;;6.90;99.90;;;;;;5023654;28;20253;-89
2021/05/05 11:06:51;;;;;;;8.20;2.27;;;6.80;99.90;;;;;;5035947;28;20205;-89
2021/05/05 11:09:49;;;;;;;8.37;2.63;;;6.80;99.90;;;;;;5037104;28;20207;-89
2021/05/05 11:12:47;;;;;;;5.50;2.13;;;6.80;99.90;;;;;;5034523;28;20263;-89
2021/05/05 11:15:18;;;;;;;8.10;2.40;;;6.80;99.90;;;;;;5033813;28;20299;-90
2021/05/05 11:17:48;;;;;;;6.97;2.13;;;6.70;99.90;;;;;;5034931;28;20669;-90
2021/05/05 11:20:42;;;;;;;8.97;2.00;;;6.70;99.90;;;;;;5036103;28;20213;-90
2021/05/05 11:23:44;;;;;;;7.70;2.30;;;6.70;99.90;;;;;;5036344;28;20233;-89
2021/05/05 11:26:20;;;;;;;6.47;2.00;;;6.60;99.90;;;;;;5018849;28;20243;-90
2021/05/05 11:28:56;;;;;;;11.03;2.60;;;6.60;99.90;;;;;;5035286;28;20287;-90
2021/05/05 11:31:59;;;;;;;8.93;2.27;;;6.60;99.90;;;;;;5035722;28;20208;-90
2021/05/05 11:34:34;;;;;;;11.33;2.63;;;6.50;99.90;;;;;;5031899;28;20219;-90
2021/05/05 11:37:22;;;;;;;7.93;2.37;;;6.50;99.90;;;;;;5035868;28;20250;-90
2021/05/05 11:39:55;;;;;;;11.93;2.10;;;6.40;99.90;;;;;;5034990;28;20204;-89
2021/05/05 11:42:26;;;;;;;10.63;2.13;;;6.50;99.90;;;;;;5034486;28;20221;-89
2021/05/05 11:45:12;;;;;;;7.00;2.00;;;6.50;99.90;;;;;;5035243;28;20219;-89
2021/05/05 11:47:46;;;;;;;15.13;2.87;;;6.40;99.90;;;;;;5034728;28;20216;-89
2021/05/05 11:50:19;;;;;;;11.37;2.03;;;6.40;99.90;;;;;;5035066;28;20227;-89
2021/05/05 11:52:51;;;;;;;9.20;2.60;;;6.50;99.90;;;;;;5034598;28;20255;-89
2021/05/05 11:55:26;;;;;;;6.87;2.20;;;6.40;99.90;;;;;;5033552;28;20270;-89
2021/05/05 11:57:58;;;;;;;7.37;2.00;;;6.40;99.90;;;;;;5034710;28;20727;-89
2021/05/05 12:00:31;;;;;;;5.67;1.97;;;6.30;99.90;;;;;;5034236;28;20209;-89
2021/05/05 12:03:02;;;;;;;11.27;2.47;;;6.30;99.90;;;;;;5034106;28;20209;-89
2021/05/05 12:05:33;;;;;;;5.83;1.90;;;6.30;99.90;;;;;;5033364;28;20205;-89
2021/05/05 12:08:05;;;;;;;4.97;1.90;;;6.30;99.90;;;;;;5036335;28;20247;-90
2021/05/05 12:10:53;;;;;;;5.83;2.00;;;6.20;99.90;;;;;;5033680;28;20232;-91
2021/05/05 12:13:25;;;;;;;6.37;2.13;;;6.20;99.90;;;;;;5033072;28;20231;-90
2021/05/05 12:16:05;;;;;;;6.73;1.93;;;6.20;99.90;;;;;;5033529;28;20239;-90
2021/05/05 12:18:37;;;;;;;8.10;2.30;;;6.20;99.90;;;;;;5034357;28;20209;-90
2021/05/05 12:21:10;;;;;;;3.60;1.80;;;6.30;99.90;;;;;;5034472;28;20236;-90
2021/05/05 12:23:43;;;;;;;6.17;2.00;;;6.20;99.90;;;;;;5033923;28;20237;-93
2021/05/05 12:26:21;;;;;;;7.90;2.20;;;6.20;99.90;;;;;;5034071;28;20237;-90
2021/05/05 12:28:53;;;;;;;8.07;2.00;;;6.10;99.90;;;;;;5037217;28;20665;-90
2021/05/05 12:31:26;;;;;;;9.60;2.40;;;6.10;99.90;;;;;;5039369;28;20291;-90
2021/05/05 12:33:59;;;;;;;7.27;2.40;;;6.10;99.90;;;;;;5037146;28;20212;-90
2021/05/05 12:36:31;;;;;;;6.23;2.10;;;6.00;99.90;;;;;;5038695;28;20265;-90
2021/05/05 12:39:04;;;;;;;6.57;2.20;;;6.00;99.90;;;;;;5038221;28;20251;-90
2021/05/05 12:41:44;;;;;;;5.07;1.90;;;5.90;99.90;;;;;;5038297;28;20209;-89
2021/05/05 12:44:15;;;;;;;5.07;2.07;;;5.90;99.90;;;;;;5037316;28;20224;-89
2021/05/05 12:47:06;;;;;;;8.60;2.43;;;5.90;99.90;;;;;;5037927;28;20258;-89
2021/05/05 12:49:40;;;;;;;7.60;2.63;;;5.80;99.90;;;;;;5037302;28;20209;-89
2021/05/05 12:52:27;;;;;;;8.20;2.20;;;5.90;99.90;;;;;;5037899;28;20723;-89
2021/05/05 12:54:58;;;;;;;8.43;2.20;;;5.90;99.90;;;;;;5037644;28;20227;-90
2021/05/05 12:57:31;;;;;;;6.87;2.43;;;6.00;99.90;;;;;;5037762;28;20236;-89
2021/05/05 13:00:02;;;;;;;7.27;2.47;;;6.00;99.90;;;;;;5037987;28;20243;-89
2021/05/05 13:02:35;;;;;;;8.47;2.20;;;6.00;99.90;;;;;;5037648;28;20201;-89
2021/05/05 13:05:08;;;;;;;6.67;2.30;;;6.00;99.90;;;;;;5037069;28;20205;-89
2021/05/05 13:07:41;;;;;;;8.03;3.30;;;6.00;99.90;;;;;;5037631;28;20654;-89
2021/05/05 13:10:16;;;;;;;7.47;2.30;;;6.00;99.90;;;;;;5037499;28;20243;-89
2021/05/05 13:13:02;;;;;;;7.13;2.67;;;6.10;99.90;;;;;;5037317;28;20216;-90
2021/05/05 13:15:39;;;;;;;9.50;2.43;;;6.10;99.90;;;;;;5037132;28;20213;-90
2021/05/05 13:32:45;;;;;;;7.47;2.90;;;6.40;99.90;;;;;;5035654;28;20251;-90
2021/05/05 13:35:37;;;;;;;11.47;2.70;;;6.40;99.90;;;;;;5037634;28;20209;-90
2021/05/05 13:38:10;;;;;;;6.80;2.43;;;6.50;99.90;;;;;;5036936;28;20217;-90
2021/05/05 13:40:44;;;;;;;10.97;2.37;;;6.50;99.90;;;;;;5038096;28;20205;-90
2021/05/05 13:43:24;;;;;;;4.70;2.03;;;6.60;99.90;;;;;;5017609;28;20220;-89
2021/05/05 13:46:04;;;;;;;5.83;2.60;;;6.70;99.90;;;;;;5016864;28;20239;-89
2021/05/05 13:51:22;;;;;;;9.37;2.50;;;6.80;99.90;;;;;;5013184;28;20217;-89
2021/05/05 13:53:54;;;;;;;4.60;2.20;;;6.90;99.90;;;;;;5016331;28;20245;-89
2021/05/05 13:56:29;;;;;;;8.13;2.60;;;7.00;99.90;;;;;;5017443;28;20757;-89